Davis, West Virginia
Current Conditions -  °F | °C
As of 11:35 PM on Saturday 25 Oct 2014 (Local Time) from KW99 Reporting Station
Scattered Clouds Scattered Clouds  
Wind Chill: 67°   Ceiling: Unl
Heat Index: 67°   Visibility: 10mi
Dew Point: 46°   Wind: 13mph
Humidity: 47%   Direction: 290°WNW
Pressure: 29.76"   Gusts: 35mph
Location:  39.13°N, 79.46°W
Report Text: KW99 260335Z AUTO 29011G30KT 240V320 10SM SCT049 20/08 A2976 RMK AO2 T01950080
Loading
Personal Weather Stations






























Interactive Weather Map
Tropical Storm Tracking
New forecast layout! Learn more

10-Day Weather Forecast

Advertisements
Track Severe Weather on mobile